Oark, Arkansas
Current Conditions -  °F | °C
As of 2:53 AM on Wednesday 28 Jan 2015 (Local Time) from KFYV Reporting Station
Clear Clear  
Wind Chill: 31°   Ceiling: Unl
Heat Index: 31°   Visibility: 10mi
Dew Point: 28°   Wind: 3mph
Humidity: 89%   Direction: 70°ENE
Pressure: 30.1"   Gusts: NA
Location:  35.69°N, 93.57°W
Report Text: KFYV 280853Z AUTO 07003KT 10SM CLR M01/M02 A3010 RMK AO2 SLP191 T10061022 55003
Loading
Personal Weather Stations






























Interactive Weather Map New forecast layout! Learn more

10-Day Weather Forecast

Advertisements
Track Severe Weather on mobile